Avoca, Michigan
Current Conditions -  °F | °C
As of 5:38 AM on Tuesday 27 Jan 2015 (Local Time) from KPHN Reporting Station
Light Snow Light Snow  
Wind Chill: -12°   Ceiling: 2000
Heat Index: -12°   Visibility: 5mi
Dew Point: -13°   Wind: 0mph
Humidity: 92%   Direction: NA
Pressure: 30.01"   Gusts: NA
Location:  43.06°N, 82.69°W
Report Text: KPHN 271038Z AUTO 00000KT 5SM -SN OVC020 M12/M13 A3001 RMK AO2
Loading
Personal Weather Stations






























Interactive Weather Map New forecast layout! Learn more

10-Day Weather Forecast

Advertisements
Track Severe Weather on mobile